Time;durP1;ratioP1;P1;durP2;ratioP2;P2;SDS_P1;SDS_P2;PMS_P1;PMS_P2;Temp;Humidity;BMP_temperature;BMP_pressure;BME280_temperature;BME280_humidity;BME280_pressure;Samples;Min_cycle;Max_cycle;Signal;HPM_P1;HPM_P2
2022/08/04 00:00:36;;;;;;;5.90;5.40;;;27.60;56.60;;;;;;5050555;28;20216;-88
2022/08/04 00:03:15;;;;;;;5.70;5.30;;;27.50;56.80;;;;;;5053005;28;20200;-88
2022/08/04 00:06:02;;;;;;;5.47;5.05;;;27.50;57.10;;;;;;5031708;28;20281;-88
2022/08/04 00:08:45;;;;;;;5.32;5.03;;;27.40;57.20;;;;;;5050158;28;20242;-88
2022/08/04 00:11:19;;;;;;;6.05;5.65;;;27.40;57.40;;;;;;5049721;28;20204;-88
2022/08/04 00:13:53;;;;;;;6.03;5.50;;;27.50;56.90;;;;;;5048087;28;20179;-88
2022/08/04 00:16:21;;;;;;;5.85;5.47;;;27.60;57.20;;;;;;5049626;28;20214;-88
2022/08/04 00:18:54;;;;;;;6.38;5.65;;;27.20;58.80;;;;;;5038027;28;20204;-87
2022/08/04 00:21:23;;;;;;;5.70;5.30;;;27.10;59.20;;;;;;5051926;28;20249;-88
2022/08/04 00:23:51;;;;;;;5.22;4.82;;;27.10;58.40;;;;;;5055446;28;20180;-87
2022/08/04 00:26:17;;;;;;;5.07;4.72;;;27.20;58.30;;;;;;5054246;28;20833;-87
2022/08/04 00:28:43;;;;;;;5.20;4.90;;;27.10;58.80;;;;;;5051069;28;20211;-87
2022/08/04 00:31:10;;;;;;;5.30;4.90;;;27.00;59.40;;;;;;5051335;28;20219;-88
2022/08/04 00:33:42;;;;;;;5.35;4.95;;;27.00;59.20;;;;;;5045387;28;20240;-88
2022/08/04 00:36:11;;;;;;;5.90;5.60;;;26.80;59.40;;;;;;5053202;28;20564;-86
2022/08/04 00:38:43;;;;;;;5.40;5.00;;;26.70;59.90;;;;;;5048754;28;20204;-88
2022/08/04 00:41:38;;;;;;;5.70;5.20;;;26.60;60.50;;;;;;5056528;28;20268;-89
2022/08/04 00:44:36;;;;;;;5.28;4.88;;;26.60;61.30;;;;;;5020230;28;20257;-88
2022/08/04 00:47:05;;;;;;;5.82;5.43;;;26.60;60.50;;;;;;5041071;28;20231;-87
2022/08/04 00:49:59;;;;;;;5.20;4.80;;;26.50;61.10;;;;;;5035466;28;20269;-88
2022/08/04 01:46:59;;;;;;;5.25;4.80;;;26.40;61.50;;;;;;5049675;28;20680;-87
2022/08/04 01:49:29;;;;;;;5.82;5.30;;;26.50;61.20;;;;;;5054024;28;20291;-87
2022/08/04 01:51:55;;;;;;;5.75;5.35;;;26.50;61.80;;;;;;5052179;28;20212;-87
2022/08/04 01:54:22;;;;;;;5.40;5.00;;;26.40;61.80;;;;;;5048644;28;20201;-87
2022/08/04 01:56:49;;;;;;;5.10;4.78;;;26.40;61.70;;;;;;5052529;28;20200;-88
2022/08/04 01:59:18;;;;;;;6.03;5.53;;;26.10;62.70;;;;;;5058160;28;20264;-88
2022/08/04 02:01:44;;;;;;;5.30;4.90;;;26.10;63.00;;;;;;5047796;28;20205;-88
2022/08/04 02:04:18;;;;;;;5.63;5.13;;;26.10;63.10;;;;;;5052789;28;20188;-87
2022/08/04 02:07:05;;;;;;;6.00;5.60;;;26.10;63.60;;;;;;5039531;28;20199;-88
2022/08/04 02:09:45;;;;;;;5.97;5.38;;;26.00;64.10;;;;;;5061799;28;20235;-88
2022/08/04 02:12:25;;;;;;;5.18;4.88;;;26.00;63.70;;;;;;5049572;28;20206;-88
2022/08/04 02:14:58;;;;;;;5.93;5.43;;;25.90;64.10;;;;;;5054564;28;20176;-87
2022/08/04 02:17:29;;;;;;;5.35;4.85;;;25.80;64.00;;;;;;5056671;28;20187;-87
2022/08/04 02:20:11;;;;;;;5.95;5.55;;;25.80;64.30;;;;;;5052721;28;20267;-88
2022/08/04 02:22:51;;;;;;;6.35;5.95;;;25.80;64.20;;;;;;5058319;28;20180;-87
2022/08/04 02:25:22;;;;;;;5.60;5.10;;;25.70;65.50;;;;;;5057507;28;20600;-87
2022/08/04 02:28:07;;;;;;;6.03;5.53;;;25.80;65.00;;;;;;5042167;28;20227;-87
2022/08/04 02:31:07;;;;;;;5.45;5.05;;;25.70;65.20;;;;;;5055214;28;20196;-87
2022/08/04 02:33:52;;;;;;;5.65;5.25;;;25.80;64.90;;;;;;5027269;28;20232;-88
2022/08/04 02:36:29;;;;;;;5.55;5.15;;;25.80;64.00;;;;;;5058392;28;20203;-88
2022/08/04 02:38:58;;;;;;;23.33;7.70;;;25.80;64.70;;;;;;5064344;28;20664;-87
2022/08/04 02:41:26;;;;;;;16.58;6.43;;;25.90;64.90;;;;;;5058139;28;20185;-88
2022/08/04 02:43:58;;;;;;;9.65;5.47;;;25.90;64.00;;;;;;5066121;28;20196;-88
2022/08/04 02:46:24;;;;;;;5.68;5.18;;;25.90;63.90;;;;;;5051346;28;20185;-87
2022/08/04 02:48:52;;;;;;;5.68;5.28;;;25.70;65.10;;;;;;5058754;28;20224;-88
2022/08/04 02:51:29;;;;;;;7.82;5.32;;;25.60;65.30;;;;;;5055235;28;20291;-88
2022/08/04 02:54:01;;;;;;;5.80;5.40;;;25.40;65.60;;;;;;5050774;28;20200;-87
2022/08/04 02:56:29;;;;;;;5.72;5.38;;;25.40;66.40;;;;;;5053457;28;20292;-87
2022/08/04 02:59:04;;;;;;;5.63;5.13;;;25.50;66.50;;;;;;5058823;28;20201;-87
2022/08/04 03:01:31;;;;;;;6.25;5.75;;;25.40;66.60;;;;;;5059959;28;20241;-88
2022/08/04 03:04:15;;;;;;;5.90;5.50;;;25.40;66.20;;;;;;5055066;28;20188;-87
2022/08/04 03:06:50;;;;;;;5.82;5.50;;;25.50;66.30;;;;;;5058097;28;20196;-88
2022/08/04 03:09:22;;;;;;;6.10;5.43;;;25.40;66.50;;;;;;5044787;28;20216;-87
2022/08/04 03:12:18;;;;;;;8.18;5.93;;;25.40;66.90;;;;;;5033876;28;20239;-87
2022/08/04 03:15:02;;;;;;;6.10;5.35;;;25.40;67.10;;;;;;5045756;28;20188;-89
2022/08/04 03:17:37;;;;;;;6.63;5.40;;;25.20;67.50;;;;;;5053489;28;20242;-88
2022/08/04 03:20:30;;;;;;;5.95;5.32;;;25.20;67.20;;;;;;5058095;28;20180;-88
2022/08/04 03:23:20;;;;;;;7.80;5.40;;;25.20;67.70;;;;;;5059149;28;20188;-87
2022/08/04 03:25:58;;;;;;;8.00;5.72;;;25.30;67.50;;;;;;5034143;28;20180;-87
2022/08/04 03:28:43;;;;;;;6.97;6.35;;;25.30;67.60;;;;;;5056882;28;20263;-87
2022/08/04 03:31:35;;;;;;;6.50;5.90;;;25.30;67.00;;;;;;5062695;28;20226;-88
2022/08/04 03:34:26;;;;;;;6.10;5.57;;;25.30;66.90;;;;;;5037224;28;20760;-87
2022/08/04 03:37:23;;;;;;;5.78;5.43;;;25.30;67.50;;;;;;5063309;28;20744;-86
2022/08/04 03:40:37;;;;;;;5.35;5.00;;;25.30;66.60;;;;;;5015198;28;20207;-83
2022/08/04 03:43:09;;;;;;;13.00;11.80;;;25.30;66.40;;;;;;5026089;28;20216;-84
2022/08/04 03:45:49;;;;;;;6.22;5.68;;;25.10;67.20;;;;;;5057107;28;20264;-85
2022/08/04 03:48:36;;;;;;;5.68;5.28;;;25.20;66.50;;;;;;5028400;28;20201;-85
2022/08/04 03:54:05;;;;;;;6.32;5.38;;;25.20;66.80;;;;;;5052719;28;20211;-85
2022/08/04 03:56:50;;;;;;;6.50;6.00;;;25.10;67.20;;;;;;5059871;28;20281;-85
2022/08/04 03:59:34;;;;;;;5.97;5.40;;;25.00;67.30;;;;;;5032240;28;20239;-89
2022/08/04 04:02:12;;;;;;;6.00;5.55;;;25.00;68.00;;;;;;5054189;28;20665;-89
2022/08/04 04:04:58;;;;;;;8.10;5.63;;;25.00;68.40;;;;;;5060628;28;20211;-88
2022/08/04 04:07:23;;;;;;;6.40;5.88;;;25.00;68.40;;;;;;5054687;28;20256;-88
2022/08/04 04:10:11;;;;;;;7.20;6.20;;;24.90;68.50;;;;;;5042000;28;20196;-90
2022/08/04 04:13:07;;;;;;;5.90;5.43;;;24.90;68.30;;;;;;5039464;28;20188;-90
2022/08/04 04:16:01;;;;;;;8.95;6.10;;;25.00;68.30;;;;;;5044572;28;20260;-89
2022/08/04 04:18:45;;;;;;;5.55;5.05;;;24.90;68.20;;;;;;5054081;28;20216;-90
2022/08/04 04:21:48;;;;;;;8.10;5.63;;;25.00;67.30;;;;;;5057876;28;20183;-90
2022/08/04 04:24:29;;;;;;;8.02;5.75;;;25.00;67.20;;;;;;5057844;28;20189;-90
2022/08/04 04:26:58;;;;;;;8.27;5.70;;;24.80;68.70;;;;;;5052198;28;20211;-89
2022/08/04 04:29:49;;;;;;;7.03;6.07;;;24.70;68.60;;;;;;5041304;28;20216;-90
2022/08/04 04:32:23;;;;;;;6.72;6.07;;;24.50;70.30;;;;;;5056770;28;20227;-90
2022/08/04 04:35:18;;;;;;;10.38;6.22;;;24.40;70.80;;;;;;5052365;28;20187;-86
2022/08/04 04:38:16;;;;;;;6.72;6.20;;;24.40;71.40;;;;;;5039930;28;20201;-85
2022/08/04 04:41:00;;;;;;;8.85;6.25;;;24.30;73.30;;;;;;5058912;28;20203;-86
2022/08/04 04:43:58;;;;;;;6.10;5.60;;;24.20;72.70;;;;;;5059393;28;20192;-86
2022/08/04 04:46:47;;;;;;;7.82;5.72;;;24.40;71.30;;;;;;5041443;28;20200;-85
2022/08/04 04:49:30;;;;;;;8.98;6.20;;;24.40;70.60;;;;;;5049534;28;20205;-83
2022/08/04 04:52:01;;;;;;;6.00;5.50;;;24.50;70.80;;;;;;5057958;28;20261;-87
2022/08/04 04:54:36;;;;;;;6.88;6.03;;;24.60;70.40;;;;;;5061824;28;20200;-84
2022/08/04 04:57:20;;;;;;;7.45;6.55;;;24.70;70.20;;;;;;5057899;28;20184;-84
2022/08/04 04:59:56;;;;;;;6.70;6.20;;;24.70;70.30;;;;;;5045038;28;20208;-84
2022/08/04 05:02:49;;;;;;;6.93;5.63;;;24.70;70.50;;;;;;5051962;28;20179;-83
2022/08/04 05:05:18;;;;;;;7.25;6.55;;;24.80;69.50;;;;;;5050478;28;20184;-83
2022/08/04 05:08:08;;;;;;;7.28;5.85;;;24.80;69.60;;;;;;5051335;28;20255;-84
2022/08/04 05:10:58;;;;;;;19.73;7.85;;;24.90;69.30;;;;;;5054697;28;20191;-83
2022/08/04 05:13:35;;;;;;;8.05;6.57;;;24.90;70.00;;;;;;5049175;28;20725;-84
2022/08/04 05:16:24;;;;;;;6.80;6.07;;;24.80;70.20;;;;;;5048366;28;20191;-85
2022/08/04 05:19:15;;;;;;;9.52;6.97;;;24.90;70.20;;;;;;5041608;28;20204;-86
2022/08/04 05:22:07;;;;;;;7.60;6.35;;;24.80;70.30;;;;;;5059304;28;20228;-83
2022/08/04 05:24:38;;;;;;;6.93;6.30;;;24.90;70.90;;;;;;5060397;28;20180;-84
2022/08/04 05:27:13;;;;;;;6.40;5.90;;;24.80;71.70;;;;;;5048970;28;20200;-84
2022/08/04 05:29:50;;;;;;;6.70;6.10;;;24.80;71.00;;;;;;5064875;28;20199;-85
2022/08/04 05:32:18;;;;;;;6.60;6.05;;;25.00;70.10;;;;;;5064911;28;20264;-85
2022/08/04 05:34:54;;;;;;;8.10;6.43;;;25.10;69.80;;;;;;5059651;28;20210;-85
2022/08/04 05:37:23;;;;;;;20.55;9.43;;;25.20;69.90;;;;;;5058631;28;20194;-88
2022/08/04 05:40:03;;;;;;;7.57;6.78;;;25.10;71.40;;;;;;5039568;28;20731;-85
2022/08/04 05:42:31;;;;;;;7.57;6.68;;;25.10;71.40;;;;;;5027021;28;20211;-85
2022/08/04 05:44:58;;;;;;;7.40;6.75;;;25.00;71.00;;;;;;5060475;28;20185;-85
2022/08/04 05:47:24;;;;;;;6.97;6.38;;;25.00;71.20;;;;;;5061935;28;20238;-84
2022/08/04 05:49:51;;;;;;;7.97;7.18;;;25.00;71.10;;;;;;5045899;28;20185;-85
2022/08/04 05:52:18;;;;;;;7.68;6.65;;;25.00;71.90;;;;;;5061734;28;20231;-85
2022/08/04 05:54:45;;;;;;;10.40;7.50;;;25.00;70.80;;;;;;5041647;28;20227;-84
2022/08/04 05:57:12;;;;;;;7.85;7.15;;;25.10;70.80;;;;;;5041753;28;20207;-85
2022/08/04 05:59:41;;;;;;;12.05;7.30;;;25.10;70.40;;;;;;5065735;28;20239;-85
2022/08/04 06:02:14;;;;;;;8.45;7.65;;;25.10;69.90;;;;;;5056456;28;20204;-86
2022/08/04 06:04:42;;;;;;;8.15;6.95;;;24.90;70.40;;;;;;5059490;28;20184;-87
2022/08/04 06:07:10;;;;;;;7.65;6.95;;;24.90;68.90;;;;;;5036745;28;20263;-87
2022/08/04 06:09:36;;;;;;;7.53;6.80;;;24.80;69.30;;;;;;5046721;28;20215;-85
2022/08/04 06:12:13;;;;;;;7.75;6.40;;;24.80;67.40;;;;;;5039252;28;20219;-85
2022/08/04 06:14:41;;;;;;;7.55;7.03;;;24.70;67.30;;;;;;5041502;28;20208;-87
2022/08/04 06:17:10;;;;;;;6.93;6.32;;;24.60;66.80;;;;;;5060757;28;20547;-87
2022/08/04 06:19:40;;;;;;;7.22;6.60;;;24.70;67.00;;;;;;5046752;28;20215;-85
2022/08/04 06:22:08;;;;;;;7.60;7.00;;;24.70;67.30;;;;;;5060476;28;20172;-87
2022/08/04 06:24:36;;;;;;;6.97;6.38;;;24.80;66.70;;;;;;5043645;28;20195;-86
2022/08/04 06:27:05;;;;;;;12.85;6.90;;;25.00;66.00;;;;;;5041354;28;20200;-87
2022/08/04 06:29:37;;;;;;;6.13;5.63;;;24.80;65.30;;;;;;5062494;28;20196;-85
2022/08/04 06:34:52;;;;;;;7.35;6.72;;;25.20;65.00;;;;;;5075999;28;20283;-84
2022/08/04 06:37:19;;;;;;;7.30;6.80;;;25.20;63.30;;;;;;5033434;28;20279;-84
2022/08/04 06:39:45;;;;;;;7.30;6.65;;;25.20;63.40;;;;;;5057409;28;20212;-84
2022/08/04 06:42:11;;;;;;;7.43;6.80;;;25.30;63.20;;;;;;5065214;28;20176;-84
2022/08/04 06:44:39;;;;;;;8.07;7.53;;;25.50;61.60;;;;;;5024221;28;20188;-84
2022/08/04 06:47:06;;;;;;;7.85;7.35;;;25.60;61.10;;;;;;5040460;28;20213;-84
2022/08/04 06:49:32;;;;;;;8.15;7.55;;;25.60;61.40;;;;;;5055433;28;20522;-85
2022/08/04 06:52:01;;;;;;;7.20;6.70;;;25.70;59.80;;;;;;5048477;28;20303;-84
2022/08/04 06:54:27;;;;;;;7.90;7.30;;;25.70;58.30;;;;;;5062453;28;20633;-86
2022/08/04 06:56:57;;;;;;;7.07;6.50;;;25.80;57.20;;;;;;5056102;28;20239;-83
2022/08/04 06:59:25;;;;;;;7.57;6.90;;;25.90;57.10;;;;;;5053243;28;20199;-83
2022/08/04 07:01:51;;;;;;;7.18;6.57;;;26.10;56.30;;;;;;5043752;28;20196;-83
2022/08/04 07:04:18;;;;;;;6.75;6.25;;;26.10;56.40;;;;;;5041277;28;20215;-82
2022/08/04 07:06:44;;;;;;;6.28;5.82;;;26.30;56.40;;;;;;5056792;28;20215;-82
2022/08/04 07:09:10;;;;;;;7.03;6.53;;;26.40;56.90;;;;;;5044290;28;20204;-82
2022/08/04 07:11:36;;;;;;;6.78;6.18;;;26.50;54.80;;;;;;5053621;28;20228;-82
2022/08/04 07:14:04;;;;;;;6.68;6.07;;;26.60;56.20;;;;;;5051768;28;20181;-84
2022/08/04 07:16:30;;;;;;;6.95;6.35;;;26.70;55.20;;;;;;5056178;28;20184;-83
2022/08/04 07:18:56;;;;;;;6.85;6.35;;;26.70;53.90;;;;;;5055757;28;20460;-83
2022/08/04 07:21:23;;;;;;;6.20;5.80;;;26.70;52.30;;;;;;5052669;28;20204;-85
2022/08/04 07:23:49;;;;;;;6.32;5.93;;;26.90;51.70;;;;;;5057098;28;20771;-83
2022/08/04 07:26:17;;;;;;;6.38;5.88;;;26.90;52.80;;;;;;5056715;28;20279;-82
2022/08/04 07:28:44;;;;;;;5.72;5.32;;;26.90;51.60;;;;;;5050334;28;20267;-84
2022/08/04 07:31:14;;;;;;;5.82;5.43;;;27.10;50.90;;;;;;5028295;28;20204;-84
2022/08/04 07:33:42;;;;;;;5.85;5.45;;;27.20;51.50;;;;;;5062877;28;20180;-82
2022/08/04 07:36:08;;;;;;;6.47;5.90;;;27.30;51.30;;;;;;5054270;28;20177;-83
2022/08/04 07:38:34;;;;;;;6.25;5.75;;;27.30;51.00;;;;;;5058728;28;21125;-81
2022/08/04 07:41:02;;;;;;;8.77;6.13;;;27.30;50.70;;;;;;5029813;28;20203;-81
2022/08/04 07:43:29;;;;;;;6.47;5.88;;;27.50;50.60;;;;;;5054736;28;20193;-81
2022/08/04 07:45:55;;;;;;;6.30;5.88;;;27.80;49.50;;;;;;5043178;28;20211;-82
2022/08/04 07:48:23;;;;;;;7.70;6.40;;;27.80;49.00;;;;;;5058520;28;20264;-83
2022/08/04 07:50:49;;;;;;;6.55;5.88;;;27.80;48.20;;;;;;5061756;28;20272;-83
2022/08/04 07:53:16;;;;;;;6.57;6.15;;;27.90;47.90;;;;;;5056910;28;20195;-82
2022/08/04 07:55:45;;;;;;;6.90;6.30;;;28.10;48.00;;;;;;5056576;28;20188;-81
2022/08/04 07:58:11;;;;;;;6.50;6.10;;;28.20;47.90;;;;;;5061467;28;20272;-82
2022/08/04 08:00:38;;;;;;;7.22;6.60;;;28.40;46.80;;;;;;5046785;28;20192;-81
2022/08/04 08:03:05;;;;;;;6.45;5.88;;;28.50;47.20;;;;;;5037755;28;20272;-82
2022/08/04 08:05:31;;;;;;;6.13;5.72;;;28.50;46.90;;;;;;5059843;28;20189;-82
2022/08/04 08:07:58;;;;;;;7.35;6.80;;;28.80;45.80;;;;;;5034901;28;20275;-81
2022/08/04 08:10:24;;;;;;;6.75;6.25;;;28.80;47.40;;;;;;5055169;28;20195;-82
2022/08/04 08:12:51;;;;;;;7.43;6.70;;;28.80;46.80;;;;;;5056740;28;20197;-83
2022/08/04 08:15:18;;;;;;;6.75;6.25;;;28.80;47.10;;;;;;5046464;28;20192;-82
2022/08/04 08:17:44;;;;;;;6.65;6.15;;;28.80;46.40;;;;;;5040300;28;20208;-88
2022/08/04 08:20:13;;;;;;;6.90;6.30;;;29.10;45.90;;;;;;5045435;28;20197;-89
2022/08/04 08:22:39;;;;;;;7.40;6.70;;;29.30;44.70;;;;;;5058142;28;20184;-90
2022/08/04 08:25:06;;;;;;;7.35;6.65;;;29.40;44.60;;;;;;5059121;28;20212;-89
2022/08/04 08:27:33;;;;;;;6.35;5.85;;;29.50;44.40;;;;;;5036904;28;21583;-90
2022/08/04 08:29:59;;;;;;;6.45;5.85;;;29.60;43.70;;;;;;5061575;28;20192;-90
2022/08/04 08:32:25;;;;;;;7.05;6.45;;;29.70;44.20;;;;;;5056270;28;20611;-85
2022/08/04 08:34:54;;;;;;;6.88;6.38;;;29.90;42.60;;;;;;5060491;28;20191;-90
2022/08/04 08:37:29;;;;;;;7.03;6.45;;;30.00;42.60;;;;;;5061744;28;20265;-88
2022/08/04 08:40:17;;;;;;;6.50;6.00;;;30.10;42.00;;;;;;5056076;28;20195;-88
2022/08/04 08:42:43;;;;;;;9.75;6.68;;;30.20;41.70;;;;;;5058612;28;20172;-87
2022/08/04 08:45:24;;;;;;;7.07;6.57;;;30.40;42.40;;;;;;5061555;28;20191;-90
2022/08/04 08:48:02;;;;;;;7.20;6.60;;;30.50;42.10;;;;;;5033916;28;20204;-87
2022/08/04 08:50:51;;;;;;;6.72;6.28;;;30.40;41.00;;;;;;5042036;28;20275;-87
2022/08/04 08:53:58;;;;;;;6.32;5.82;;;30.60;41.60;;;;;;5040731;28;20195;-88
2022/08/04 08:56:51;;;;;;;6.50;6.00;;;30.50;41.00;;;;;;5057794;28;20187;-89
2022/08/04 08:59:41;;;;;;;6.63;6.22;;;30.70;40.40;;;;;;5054468;28;20204;-88
2022/08/04 09:02:32;;;;;;;6.78;6.28;;;30.60;40.40;;;;;;5038456;28;20188;-89
2022/08/04 09:05:35;;;;;;;6.40;5.85;;;30.70;40.20;;;;;;5054232;28;20199;-89
2022/08/04 09:08:09;;;;;;;6.60;6.20;;;30.90;38.90;;;;;;5057046;28;20229;-88
2022/08/04 09:10:49;;;;;;;6.57;5.97;;;31.00;39.10;;;;;;5050660;28;20600;-89
2022/08/04 09:13:54;;;;;;;6.32;5.82;;;31.20;39.10;;;;;;5039327;28;20585;-90
2022/08/04 09:16:35;;;;;;;6.38;5.97;;;31.30;38.90;;;;;;4982240;28;20192;-88
2022/08/04 09:19:07;;;;;;;6.00;5.60;;;31.60;37.80;;;;;;5053788;28;20200;-88
2022/08/04 09:22:00;;;;;;;6.43;5.78;;;31.70;38.00;;;;;;5036576;28;20196;-89
2022/08/04 09:24:59;;;;;;;6.40;5.55;;;31.90;36.90;;;;;;5018535;28;20192;-87
2022/08/04 09:27:41;;;;;;;6.20;5.63;;;32.00;36.90;;;;;;5047419;28;20195;-87
2022/08/04 09:30:09;;;;;;;6.32;5.80;;;32.20;36.50;;;;;;5061013;28;20191;-87
2022/08/04 09:32:38;;;;;;;6.63;6.13;;;32.30;36.80;;;;;;5056841;28;20207;-87
2022/08/04 09:35:25;;;;;;;7.38;5.28;;;32.50;35.90;;;;;;5039195;28;20214;-88
2022/08/04 09:38:12;;;;;;;7.05;5.88;;;32.70;35.40;;;;;;5040065;28;20208;-88
2022/08/04 09:40:57;;;;;;;6.25;5.85;;;32.70;36.20;;;;;;5054433;28;20181;-87
2022/08/04 09:43:48;;;;;;;8.48;6.07;;;32.80;35.90;;;;;;5053691;28;20184;-88
2022/08/04 09:46:21;;;;;;;6.35;5.88;;;32.70;36.90;;;;;;5029960;28;20410;-88
2022/08/04 09:49:17;;;;;;;6.63;6.03;;;32.90;35.90;;;;;;5032693;28;20211;-88
2022/08/04 09:52:06;;;;;;;6.70;6.15;;;33.00;36.30;;;;;;5023391;28;20212;-88
2022/08/04 09:54:52;;;;;;;6.40;5.90;;;33.10;35.60;;;;;;5052831;28;20747;-88
2022/08/04 09:57:57;;;;;;;6.25;5.75;;;33.30;35.30;;;;;;5025290;28;20197;-88
2022/08/04 10:00:28;;;;;;;6.50;5.90;;;33.70;34.00;;;;;;5035304;28;20211;-87
2022/08/04 10:02:59;;;;;;;6.22;5.72;;;33.60;34.80;;;;;;5058094;28;20204;-88
2022/08/04 10:05:39;;;;;;;6.25;5.75;;;33.90;34.10;;;;;;5034959;28;20327;-87
2022/08/04 10:08:08;;;;;;;5.75;5.43;;;34.30;34.60;;;;;;5050953;28;20261;-89
2022/08/04 10:10:58;;;;;;;6.07;5.57;;;34.40;32.30;;;;;;5054027;28;20263;-88
2022/08/04 10:14:04;;;;;;;6.03;5.63;;;34.40;32.80;;;;;;5050892;28;20188;-88
2022/08/04 10:16:52;;;;;;;6.07;5.68;;;34.90;31.40;;;;;;5041394;28;20210;-88
2022/08/04 10:19:36;;;;;;;5.57;5.28;;;34.80;31.80;;;;;;5052499;28;20204;-90
2022/08/04 10:22:08;;;;;;;5.68;5.18;;;34.60;32.10;;;;;;5040963;28;20361;-89
2022/08/04 10:24:55;;;;;;;6.00;5.50;;;34.90;30.80;;;;;;5048265;28;20177;-92
2022/08/04 10:27:26;;;;;;;6.40;5.97;;;35.10;30.60;;;;;;5039963;28;20176;-89
2022/08/04 10:29:57;;;;;;;7.25;6.25;;;35.30;30.20;;;;;;5055504;28;20191;-88
2022/08/04 10:32:51;;;;;;;6.22;5.82;;;35.60;29.70;;;;;;5039858;28;20220;-87
2022/08/04 10:35:20;;;;;;;7.05;5.93;;;35.70;30.00;;;;;;5028104;28;20211;-87
2022/08/04 10:38:05;;;;;;;6.45;6.15;;;35.90;29.80;;;;;;5039427;28;20763;-88
2022/08/04 10:40:44;;;;;;;6.85;6.35;;;36.20;29.80;;;;;;5053655;28;20184;-87
2022/08/04 10:43:34;;;;;;;6.40;5.90;;;36.30;29.30;;;;;;5041308;28;20191;-88
2022/08/04 10:46:13;;;;;;;5.65;5.25;;;36.60;28.70;;;;;;5040009;28;20187;-89
2022/08/04 10:48:52;;;;;;;6.75;6.35;;;36.70;27.50;;;;;;5053081;28;20770;-88
2022/08/04 10:51:32;;;;;;;6.18;5.68;;;36.80;27.50;;;;;;5060885;28;20231;-87
2022/08/04 10:54:16;;;;;;;6.25;5.75;;;37.00;27.90;;;;;;5057643;28;20202;-88
2022/08/04 10:57:07;;;;;;;6.80;6.20;;;37.10;27.90;;;;;;5056152;28;20256;-88
2022/08/04 11:00:01;;;;;;;6.75;6.25;;;37.30;27.70;;;;;;5062477;28;20208;-87
2022/08/04 11:02:48;;;;;;;6.93;6.50;;;37.40;27.80;;;;;;5044589;28;20215;-87
2022/08/04 11:05:36;;;;;;;6.95;6.55;;;37.60;27.30;;;;;;5040671;28;20200;-87
2022/08/04 11:08:10;;;;;;;6.60;5.93;;;37.80;26.70;;;;;;5037096;28;20211;-87
2022/08/04 11:10:54;;;;;;;6.75;6.40;;;37.80;27.30;;;;;;5056381;28;20241;-87
2022/08/04 11:13:23;;;;;;;6.32;6.03;;;38.00;26.70;;;;;;5056961;28;20218;-88
2022/08/04 11:15:54;;;;;;;7.00;6.60;;;38.10;27.00;;;;;;5052860;28;20176;-87
2022/08/04 11:18:43;;;;;;;6.55;6.15;;;38.30;26.80;;;;;;5057145;28;20652;-88
2022/08/04 11:21:12;;;;;;;7.15;6.70;;;38.50;26.20;;;;;;5053079;28;20176;-86
2022/08/04 11:23:45;;;;;;;6.70;6.30;;;38.40;26.10;;;;;;5037153;28;20274;-87
2022/08/04 11:26:20;;;;;;;7.90;6.78;;;38.20;26.30;;;;;;5060485;28;20188;-88
2022/08/04 11:29:14;;;;;;;7.28;6.80;;;38.50;26.20;;;;;;5056116;28;20229;-89
2022/08/04 11:31:43;;;;;;;6.78;6.47;;;38.90;26.20;;;;;;5054579;28;20691;-87
2022/08/04 11:34:20;;;;;;;6.68;6.28;;;38.50;27.00;;;;;;5060587;28;20187;-85
2022/08/04 11:36:56;;;;;;;7.35;6.95;;;38.80;26.30;;;;;;5057429;28;20179;-87
2022/08/04 11:39:47;;;;;;;6.85;6.53;;;38.90;25.80;;;;;;5057003;28;20208;-88
2022/08/04 11:42:25;;;;;;;6.68;6.35;;;39.30;25.80;;;;;;5053618;28;20196;-88
2022/08/04 11:45:03;;;;;;;6.80;6.40;;;39.50;24.40;;;;;;5055994;28;20218;-88
2022/08/04 11:47:37;;;;;;;7.18;6.68;;;39.90;23.80;;;;;;5040077;28;20187;-88
2022/08/04 11:50:23;;;;;;;7.10;6.70;;;40.00;24.00;;;;;;5040976;28;20195;-88
2022/08/04 11:52:52;;;;;;;7.50;7.00;;;40.10;23.80;;;;;;5043088;28;20218;-87
2022/08/04 11:55:21;;;;;;;7.38;7.03;;;40.10;23.90;;;;;;5039205;28;20312;-87
2022/08/04 11:57:48;;;;;;;7.47;6.93;;;40.30;23.60;;;;;;5029643;28;21200;-87
2022/08/04 12:00:18;;;;;;;7.60;7.13;;;40.40;23.70;;;;;;5047386;28;20203;-88
2022/08/04 12:03:02;;;;;;;7.55;7.15;;;40.60;22.80;;;;;;5056660;28;20203;-87
2022/08/04 12:05:36;;;;;;;6.60;6.30;;;40.80;22.90;;;;;;5054217;28;20742;-88
2022/08/04 12:08:22;;;;;;;12.68;7.05;;;40.90;21.00;;;;;;5035938;28;20199;-88
2022/08/04 12:11:20;;;;;;;6.57;6.10;;;41.00;20.80;;;;;;5058210;28;20257;-87
2022/08/04 12:14:08;;;;;;;6.72;6.28;;;40.70;21.40;;;;;;5060361;28;20196;-87
2022/08/04 12:16:58;;;;;;;6.15;5.85;;;40.80;21.40;;;;;;5057685;28;20180;-88
2022/08/04 12:19:49;;;;;;;6.30;6.00;;;40.20;21.40;;;;;;5058250;28;20204;-88
2022/08/04 12:22:22;;;;;;;6.20;5.80;;;39.90;21.80;;;;;;5047782;28;20274;-88
2022/08/04 12:25:05;;;;;;;6.40;6.10;;;40.20;20.50;;;;;;5054657;28;20250;-87
2022/08/04 12:27:54;;;;;;;6.65;6.35;;;40.60;21.50;;;;;;5040747;28;20194;-87
2022/08/04 12:30:22;;;;;;;7.07;6.68;;;41.20;21.80;;;;;;5056307;28;20195;-88
2022/08/04 12:32:59;;;;;;;7.28;6.88;;;41.20;21.90;;;;;;5062356;28;20187;-86
2022/08/04 12:35:32;;;;;;;7.00;6.60;;;41.50;20.90;;;;;;5059138;28;20195;-87
2022/08/04 12:38:03;;;;;;;6.68;6.38;;;41.60;20.70;;;;;;5063780;28;20273;-88
2022/08/04 12:40:50;;;;;;;6.75;6.25;;;41.30;20.70;;;;;;5066487;28;20191;-88
2022/08/04 12:43:30;;;;;;;6.72;6.32;;;40.80;20.80;;;;;;5067686;28;20183;-87
2022/08/04 12:46:01;;;;;;;6.68;6.38;;;41.40;21.40;;;;;;5062034;28;20180;-88
2022/08/04 12:48:28;;;;;;;6.85;6.55;;;40.80;20.50;;;;;;5057731;28;20207;-88
2022/08/04 12:50:56;;;;;;;6.85;6.50;;;41.10;21.80;;;;;;5039038;28;20212;-88
2022/08/04 12:53:28;;;;;;;6.65;6.35;;;41.20;21.40;;;;;;5055007;28;20210;-88
2022/08/04 12:55:55;;;;;;;7.00;6.60;;;41.00;21.70;;;;;;5036399;28;20183;-88
2022/08/04 12:58:24;;;;;;;7.05;6.55;;;41.50;21.10;;;;;;5023014;28;20208;-89
2022/08/04 13:00:59;;;;;;;15.23;7.40;;;42.20;20.50;;;;;;5056702;28;20184;-88
2022/08/04 13:03:44;;;;;;;7.55;7.15;;;42.50;19.90;;;;;;5051702;28;20282;-88
2022/08/04 13:06:16;;;;;;;7.20;6.90;;;42.50;20.20;;;;;;5060923;28;20190;-89
2022/08/04 13:08:45;;;;;;;7.50;7.20;;;42.40;20.00;;;;;;5059865;28;20689;-89
2022/08/04 13:11:11;;;;;;;7.40;7.10;;;42.70;19.90;;;;;;5053079;28;20219;-89
2022/08/04 13:13:38;;;;;;;7.45;7.05;;;43.20;19.80;;;;;;5058531;28;20250;-88
2022/08/04 13:16:09;;;;;;;7.60;7.30;;;43.40;19.80;;;;;;5030182;28;20659;-88
2022/08/04 13:18:46;;;;;;;7.00;6.60;;;43.40;19.00;;;;;;5035221;28;20231;-90
2022/08/04 13:21:20;;;;;;;7.32;6.93;;;43.20;18.00;;;;;;5050607;28;20200;-89
2022/08/04 13:23:49;;;;;;;7.05;6.47;;;43.40;17.80;;;;;;5053893;28;20183;-89
2022/08/04 13:26:16;;;;;;;6.32;5.97;;;42.70;17.80;;;;;;5058075;28;20196;-90
2022/08/04 13:28:51;;;;;;;6.70;6.40;;;42.30;17.50;;;;;;5056984;28;20226;-89
2022/08/04 13:31:22;;;;;;;7.00;6.70;;;42.50;17.00;;;;;;5036073;28;20295;-89
2022/08/04 13:33:53;;;;;;;7.05;6.75;;;42.70;16.40;;;;;;5053555;28;20180;-88
2022/08/04 13:36:27;;;;;;;7.40;7.10;;;43.40;17.40;;;;;;5041040;28;20183;-89
2022/08/04 13:39:07;;;;;;;7.47;7.07;;;43.90;16.90;;;;;;5052671;28;20223;-87
2022/08/04 13:41:37;;;;;;;7.63;7.32;;;44.50;17.00;;;;;;5051255;28;20187;-88
2022/08/04 13:44:08;;;;;;;7.53;7.20;;;44.60;16.80;;;;;;5059034;28;20690;-88
2022/08/04 13:46:46;;;;;;;7.65;7.20;;;44.40;17.00;;;;;;5056221;28;20187;-88
2022/08/04 13:49:16;;;;;;;7.50;7.20;;;44.40;16.90;;;;;;5051766;28;20238;-89
2022/08/04 13:51:48;;;;;;;7.88;7.57;;;44.40;16.60;;;;;;5039206;28;20243;-89
2022/08/04 13:54:14;;;;;;;8.13;7.80;;;44.80;15.90;;;;;;5040822;28;20203;-88
2022/08/04 13:56:45;;;;;;;8.40;8.00;;;45.20;15.90;;;;;;5054508;28;20248;-88
2022/08/04 13:59:15;;;;;;;8.02;7.72;;;44.90;16.50;;;;;;5055639;28;20200;-89
2022/08/04 14:01:44;;;;;;;7.93;7.47;;;44.50;16.00;;;;;;5056616;28;20202;-89
2022/08/04 14:04:25;;;;;;;7.80;7.50;;;44.40;16.70;;;;;;5056595;28;20241;-88
2022/08/04 14:07:02;;;;;;;8.40;8.10;;;44.60;16.20;;;;;;5040749;28;20190;-89
2022/08/04 14:09:30;;;;;;;9.23;8.55;;;44.60;16.90;;;;;;5062226;28;20229;-89
2022/08/04 14:12:13;;;;;;;7.60;7.20;;;44.60;16.10;;;;;;5056945;28;20211;-91
2022/08/04 14:14:51;;;;;;;7.38;7.07;;;44.60;15.70;;;;;;5056745;28;20274;-91
2022/08/04 14:17:25;;;;;;;6.97;6.68;;;44.00;15.80;;;;;;5060274;28;20183;-92
2022/08/04 14:19:55;;;;;;;7.60;7.30;;;43.70;16.40;;;;;;5045782;28;20295;-91
2022/08/04 14:22:27;;;;;;;8.30;7.85;;;44.30;16.20;;;;;;5064745;28;20266;-91
2022/08/04 14:25:03;;;;;;;8.55;8.05;;;44.80;15.90;;;;;;5045913;28;20203;-91
2022/08/04 14:27:48;;;;;;;8.20;7.90;;;45.00;15.40;;;;;;5042945;28;20211;-90
2022/08/04 14:30:30;;;;;;;8.68;8.27;;;45.00;15.00;;;;;;5052019;28;20237;-91
2022/08/04 14:33:01;;;;;;;8.75;8.18;;;45.20;14.80;;;;;;5060031;28;20183;-88